Time Latitude Longitude Accuracy (66% radius in meters) Altitude (meters) Speed (km/hour) Bearing (degrees) Battery (%) GPS flag
07:05:25 57.204716 60.111011 4.5509996414185 289 1.6399999856949 212.69999694824 46 1 delete
07:05:15 57.204814 60.111124 4.5509996414185 291 1.7300000190735 15.300000190735 46 1 delete
07:05:11 57.204716 60.111059 6.0679998397827 288 1.6900000572205 25.89999961853 46 1 delete
07:05:07 57.204611 60.110977 9.1019992828369 290 1.6200000047684 35 46 1 delete
07:05:05 57.204561 60.110932 6.0679998397827 291 1.3300000429153 24.89999961853 46 1 delete
07:05:03 57.204520 60.110877 6.0679998397827 291 1.539999961853 48.200000762939 46 1 delete
07:04:54 57.204440 60.110681 6.0679998397827 292 0.28000000119209 182.10000610352 46 1 delete
07:04:44 57.204453 60.110683 4.5509996414185 293 1.1599999666214 220.10000610352 46 1 delete
07:04:43 57.204462 60.110697 4.5509996414185 294 1.2599999904633 223.89999389648 46 1 delete
07:04:37 57.204527 60.110829 4.5509996414185 295 2.5699999332428 213 46 1 delete
07:04:33 57.204587 60.110919 6.0679998397827 295 1.0900000333786 207.10000610352 46 1 delete
07:04:31 57.204615 60.110933 4.5509996414185 295 1.1799999475479 184.5 46 1 delete
07:04:23 57.204645 60.110912 4.5509996414185 294 0 0 46 1 delete
07:04:12 57.204645 60.110912 4.5509996414185 294 0 0 46 1 delete
07:04:02 57.204645 60.110912 4.5509996414185 294 0 0 46 1 delete
07:03:51 57.204645 60.110911 4.5509996414185 294 0 0 46 1 delete
07:03:41 57.204645 60.110911 6.0679998397827 294 0 0 46 1 delete
07:03:31 57.204642 60.110917 6.0679998397827 293 0 0 46 1 delete
07:03:20 57.204654 60.110966 6.0679998397827 293 1.5199999809265 243.69999694824 46 1 delete
07:03:16 57.204694 60.111020 4.5509996414185 291 1.6699999570847 199.30000305176 46 1 delete
07:03:10 57.204790 60.111094 4.5509996414185 292 1.4900000095367 204.5 46 1 delete
07:03:02 57.204877 60.111147 4.5509996414185 294 1.5 196.60000610352 46 1 delete
07:02:59 57.204918 60.111171 4.5509996414185 293 0.38999998569489 189.19999694824 46 1 delete
07:02:53 57.204975 60.111196 4.5509996414185 293 0.20000000298023 195.89999389648 46 1 delete
07:02:48 57.205022 60.111219 4.5509996414185 293 0.85000002384186 198.89999389648 46 1 delete
07:02:43 57.205066 60.111221 4.5509996414185 293 2.1700000762939 183.89999389648 46 1 delete
07:02:38 57.205142 60.111252 4.5509996414185 292 1.6399999856949 196.5 46 1 delete
07:02:36 57.205168 60.111278 6.0679998397827 291 1.1900000572205 204.5 46 1 delete
07:02:28 57.205238 60.111304 7.585000038147 289 1.4800000190735 174.10000610352 46 1 delete
07:02:26 57.205259 60.111311 7.585000038147 289 1.5099999904633 182.69999694824 46 1 delete
07:02:21 57.205350 60.111347 7.585000038147 287 1.4299999475479 172.39999389648 46 1 delete
07:02:17 57.205427 60.111337 6.0679998397827 287 1.3099999427795 174.10000610352 46 1 delete
07:02:16 57.205448 60.111331 6.0679998397827 286 1.2699999809265 175.10000610352 46 1 delete
07:02:11 57.205545 60.111282 4.5509996414185 282 1.289999961853 151.69999694824 46 1 delete
07:02:07 57.205613 60.111232 4.5509996414185 282 1.2699999809265 163.19999694824 46 1 delete
07:02:05 57.205652 60.111216 4.5509996414185 282 2.789999961853 171.19999694824 46 1 delete
07:01:57 57.205743 60.111180 4.5509996414185 283 0.52999997138977 207.39999389648 46 1 delete
07:01:52 57.205749 60.111190 6.0679998397827 282 1.25 207.69999694824 46 1 delete
07:01:47 57.205830 60.111286 4.5509996414185 282 4.0300002098083 210.69999694824 46 1 delete
07:01:46 57.205862 60.111322 4.5509996414185 283 3.2999999523163 209.5 46 1 delete
07:01:44 57.205912 60.111398 4.5509996414185 284 4.2600002288818 215.60000610352 46 1 delete
07:01:41 57.206026 60.111513 6.0679998397827 284 6.2800002098083 225.30000305176 46 1 delete
07:01:39 57.206107 60.111689 7.585000038147 282 6.2300000190735 231.39999389648 46 1 delete
07:01:37 57.206182 60.111852 6.0679998397827 283 6.9699997901917 235.89999389648 46 1 delete
07:01:36 57.206229 60.111941 6.0679998397827 283 7.0900001525879 244.60000610352 46 1 delete
07:01:35 57.206263 60.112035 6.0679998397827 285 8.1499996185303 249.30000305176 46 1 delete
07:01:33 57.206306 60.112290 6.0679998397827 284 7.9200000762939 256.5 46 1 delete
07:01:31 57.206325 60.112541 6.0679998397827 286 8.6999998092651 258.79998779297 46 1 delete
07:01:29 57.206361 60.112849 7.585000038147 287 8.6999998092651 258.20001220703 46 1 delete
07:01:27 57.206392 60.113144 7.585000038147 288 9.6999998092651 263 46 1 delete